Time,TemperatureF,DewpointF,PressureIn,WindDirection,WindDirectionDegrees,WindSpeedMPH,WindSpeedGustMPH,Humidity,HourlyPrecipIn,Conditions,Clouds,dailyrainin,SoftwareType,DateUTC
2013-07-01 00:05:00,66.8,65.0,29.86,ESE,109,0.0,0.0,95,0.01,,,0.00,weatherlink.com 1.10,2013-07-01 04:05:00,
2013-07-01 00:20:00,66.6,66.0,29.87,ESE,109,0.0,1.0,96,0.04,,,0.03,weatherlink.com 1.10,2013-07-01 04:20:00,
2013-07-01 00:35:00,66.3,65.0,29.87,ESE,109,0.0,0.0,96,0.04,,,0.03,weatherlink.com 1.10,2013-07-01 04:35:00,
2013-07-01 00:50:00,65.9,65.0,29.87,ESE,109,0.0,0.0,95,0.04,,,0.03,weatherlink.com 1.10,2013-07-01 04:50:00,
2013-07-01 01:05:00,65.6,65.0,29.87,ESE,109,0.0,0.0,96,0.03,,,0.03,weatherlink.com 1.10,2013-07-01 05:05:00,
2013-07-01 01:20:00,65.6,65.0,29.87,ESE,109,0.0,0.0,96,0.00,,,0.03,weatherlink.com 1.10,2013-07-01 05:20:00,
2013-07-01 01:35:00,65.6,65.0,29.87,ESE,109,0.0,1.0,97,0.00,,,0.03,weatherlink.com 1.10,2013-07-01 05:35:00,
2013-07-01 01:50:00,65.5,65.0,29.87,ESE,109,0.0,0.0,97,0.00,,,0.03,weatherlink.com 1.10,2013-07-01 05:50:00,
2013-07-01 02:05:00,65.5,65.0,29.86,ESE,109,0.0,0.0,97,0.00,,,0.03,weatherlink.com 1.10,2013-07-01 06:05:00,
2013-07-01 02:20:00,65.4,65.0,29.86,ESE,109,0.0,0.0,97,0.00,,,0.03,weatherlink.com 1.10,2013-07-01 06:20:00,
2013-07-01 02:35:00,65.2,64.0,29.86,ESE,109,0.0,1.0,97,0.00,,,0.03,weatherlink.com 1.10,2013-07-01 06:35:00,
2013-07-01 02:50:00,64.9,64.0,29.86,ESE,109,0.0,0.0,97,0.00,,,0.03,weatherlink.com 1.10,2013-07-01 06:50:00,
2013-07-01 03:05:00,64.8,64.0,29.86,ESE,109,0.0,0.0,97,0.00,,,0.03,weatherlink.com 1.10,2013-07-01 07:05:00,
2013-07-01 03:20:00,64.7,64.0,29.86,ESE,109,0.0,0.0,97,0.00,,,0.03,weatherlink.com 1.10,2013-07-01 07:20:00,
2013-07-01 03:35:00,64.5,64.0,29.86,ESE,109,0.0,0.0,97,0.00,,,0.03,weatherlink.com 1.10,2013-07-01 07:35:00,
2013-07-01 03:50:00,64.5,64.0,29.86,ESE,109,0.0,0.0,97,0.00,,,0.03,weatherlink.com 1.10,2013-07-01 07:50:00,
2013-07-01 04:20:00,64.3,64.0,29.86,ESE,109,0.0,0.0,97,0.00,,,0.03,weatherlink.com 1.10,2013-07-01 08:20:00,
2013-07-01 04:35:00,64.3,64.0,29.86,ESE,109,0.0,0.0,97,0.00,,,0.03,weatherlink.com 1.10,2013-07-01 08:35:00,
2013-07-01 04:50:00,64.3,64.0,29.87,ESE,109,0.0,0.0,97,0.00,,,0.03,weatherlink.com 1.10,2013-07-01 08:50:00,
2013-07-01 05:05:00,64.3,64.0,29.86,ESE,109,0.0,0.0,97,0.02,,,0.05,weatherlink.com 1.10,2013-07-01 09:05:00,
2013-07-01 05:20:00,64.3,64.0,29.88,ESE,109,0.0,1.0,97,0.33,,,0.36,weatherlink.com 1.10,2013-07-01 09:20:00,
2013-07-01 05:35:00,64.2,64.0,29.88,ESE,109,0.0,2.0,98,0.65,,,0.68,weatherlink.com 1.10,2013-07-01 09:35:00,
2013-07-01 05:50:00,63.9,63.0,29.89,ESE,109,0.0,0.0,97,0.68,,,0.71,weatherlink.com 1.10,2013-07-01 09:50:00,
2013-07-01 06:05:00,63.6,63.0,29.89,ESE,109,0.0,0.0,98,0.68,,,0.73,weatherlink.com 1.10,2013-07-01 10:05:00,
2013-07-01 06:20:00,63.4,63.0,29.89,ESE,109,0.0,0.0,98,0.37,,,0.75,weatherlink.com 1.10,2013-07-01 10:20:00,
2013-07-01 06:35:00,63.5,63.0,29.89,ESE,109,0.0,0.0,98,0.08,,,0.77,weatherlink.com 1.10,2013-07-01 10:35:00,
2013-07-01 06:50:00,63.6,63.0,29.89,ESE,109,0.0,0.0,98,0.07,,,0.78,weatherlink.com 1.10,2013-07-01 10:50:00,
2013-07-01 07:05:00,63.7,63.0,29.90,ESE,109,0.0,3.0,98,0.05,,,0.78,weatherlink.com 1.10,2013-07-01 11:05:00,
2013-07-01 07:20:00,63.9,63.0,29.89,ESE,109,0.0,0.0,98,0.03,,,0.78,weatherlink.com 1.10,2013-07-01 11:20:00,
2013-07-01 07:35:00,64.4,64.0,29.90,ESE,109,0.0,0.0,99,0.01,,,0.78,weatherlink.com 1.10,2013-07-01 11:35:00,
2013-07-01 07:50:00,65.0,65.0,29.90,ESE,109,0.0,0.0,99,0.00,,,0.78,weatherlink.com 1.10,2013-07-01 11:50:00,
2013-07-01 08:05:00,65.2,65.0,29.91,ESE,109,0.0,1.0,99,0.01,,,0.79,weatherlink.com 1.10,2013-07-01 12:05:00,
2013-07-01 08:20:00,65.3,65.0,29.90,ESE,109,0.0,0.0,98,0.01,,,0.79,weatherlink.com 1.10,2013-07-01 12:20:00,
2013-07-01 08:35:00,65.5,65.0,29.91,ESE,109,0.0,0.0,99,0.01,,,0.79,weatherlink.com 1.10,2013-07-01 12:35:00,
2013-07-01 08:50:00,66.6,66.0,29.91,ESE,109,0.0,1.0,99,0.01,,,0.79,weatherlink.com 1.10,2013-07-01 12:50:00,
2013-07-01 09:05:00,66.8,66.0,29.91,ESE,109,0.0,1.0,98,0.00,,,0.79,weatherlink.com 1.10,2013-07-01 13:05:00,
2013-07-01 09:20:00,67.5,67.0,29.92,ESE,109,0.0,1.0,98,0.00,,,0.79,weatherlink.com 1.10,2013-07-01 13:20:00,
2013-07-01 09:35:00,68.2,68.0,29.92,ESE,109,0.0,1.0,98,0.00,,,0.79,weatherlink.com 1.10,2013-07-01 13:35:00,
2013-07-01 09:51:00,68.7,67.0,29.92,SSW,197,0.0,3.0,95,0.00,,,0.79,weatherlink.com 1.10,2013-07-01 13:51:00,
2013-07-01 10:06:00,69.1,67.0,29.92,SSW,197,0.0,1.0,94,0.00,,,0.79,weatherlink.com 1.10,2013-07-01 14:06:00,
2013-07-01 10:21:00,69.5,68.0,29.92,SSW,197,0.0,1.0,94,0.00,,,0.79,weatherlink.com 1.10,2013-07-01 14:21:00,
2013-07-01 10:36:00,69.7,68.0,29.92,SSW,197,0.0,0.0,93,0.00,,,0.79,weatherlink.com 1.10,2013-07-01 14:36:00,
2013-07-01 10:51:00,70.4,67.0,29.93,SSW,197,0.0,0.0,90,0.00,,,0.79,weatherlink.com 1.10,2013-07-01 14:51:00,
2013-07-01 11:06:00,71.3,68.0,29.93,SSW,197,0.0,1.0,90,0.00,,,0.79,weatherlink.com 1.10,2013-07-01 15:06:00,
2013-07-01 11:21:00,72.7,69.0,29.93,South,188,0.0,1.0,87,0.00,,,0.79,weatherlink.com 1.10,2013-07-01 15:21:00,
2013-07-01 11:36:00,73.3,68.0,29.93,West,260,0.0,5.0,83,0.00,,,0.79,weatherlink.com 1.10,2013-07-01 15:36:00,
2013-07-01 12:06:00,74.6,68.0,29.93,West,259,0.0,2.0,79,0.00,,,0.79,weatherlink.com 1.10,2013-07-01 16:06:00,
2013-07-01 12:21:00,75.9,69.0,29.93,NNW,346,0.0,2.0,79,0.00,,,0.79,weatherlink.com 1.10,2013-07-01 16:21:00,
2013-07-01 12:36:00,76.1,69.0,29.92,NNW,346,0.0,1.0,78,0.00,,,0.79,weatherlink.com 1.10,2013-07-01 16:36:00,
2013-07-01 12:51:00,76.3,69.0,29.92,NNW,346,0.0,2.0,77,0.00,,,0.79,weatherlink.com 1.10,2013-07-01 16:51:00,
2013-07-01 13:06:00,77.1,67.0,29.91,NNW,346,1.0,2.0,72,0.00,,,0.79,weatherlink.com 1.10,2013-07-01 17:06:00,
2013-07-01 13:21:00,77.0,69.0,29.91,NE,45,2.0,3.0,76,0.00,,,0.79,weatherlink.com 1.10,2013-07-01 17:21:00,
2013-07-01 13:36:00,75.5,68.0,29.91,NE,46,1.0,3.0,78,0.00,,,0.79,weatherlink.com 1.10,2013-07-01 17:36:00,
2013-07-01 13:51:00,75.7,68.0,29.90,NE,38,2.0,3.0,77,0.00,,,0.79,weatherlink.com 1.10,2013-07-01 17:51:00,
2013-07-01 14:06:00,75.9,69.0,29.90,NE,40,0.0,3.0,79,0.00,,,0.79,weatherlink.com 1.10,2013-07-01 18:06:00,
2013-07-01 14:21:00,75.2,69.0,29.90,East,80,3.0,3.0,81,0.00,,,0.79,weatherlink.com 1.10,2013-07-01 18:21:00,
2013-07-01 14:36:00,75.2,71.0,29.89,East,84,2.0,5.0,85,0.00,,,0.79,weatherlink.com 1.10,2013-07-01 18:36:00,
2013-07-01 14:52:00,75.5,70.0,29.90,East,96,1.0,5.0,83,0.00,,,0.79,weatherlink.com 1.10,2013-07-01 18:52:00,
2013-07-01 15:06:00,75.3,70.0,29.90,East,99,5.0,5.0,83,0.00,,,0.79,weatherlink.com 1.10,2013-07-01 19:06:00,
2013-07-01 15:21:00,74.8,70.0,29.90,ESE,103,1.0,5.0,84,0.00,,,0.79,weatherlink.com 1.10,2013-07-01 19:21:00,
2013-07-01 15:36:00,74.5,70.0,29.90,ESE,103,3.0,5.0,85,0.00,,,0.79,weatherlink.com 1.10,2013-07-01 19:36:00,
2013-07-01 15:51:00,74.0,69.0,29.90,East,98,3.0,6.0,85,0.00,,,0.79,weatherlink.com 1.10,2013-07-01 19:51:00,
2013-07-01 16:06:00,74.0,70.0,29.91,East,99,2.0,5.0,86,0.00,,,0.79,weatherlink.com 1.10,2013-07-01 20:06:00,
2013-07-01 16:21:00,74.3,70.0,29.90,East,98,3.0,5.0,86,0.00,,,0.79,weatherlink.com 1.10,2013-07-01 20:21:00,
2013-07-01 16:36:00,74.1,69.0,29.91,SSE,155,3.0,4.0,85,0.00,,,0.79,weatherlink.com 1.10,2013-07-01 20:36:00,
2013-07-01 16:51:00,73.8,69.0,29.90,ESE,108,1.0,4.0,85,0.00,,,0.79,weatherlink.com 1.10,2013-07-01 20:51:00,
2013-07-01 17:06:00,73.5,69.0,29.90,ESE,108,2.0,3.0,85,0.00,,,0.79,weatherlink.com 1.10,2013-07-01 21:06:00,
2013-07-01 17:21:00,73.5,68.0,29.91,ESE,107,0.0,5.0,83,0.00,,,0.79,weatherlink.com 1.10,2013-07-01 21:21:00,
2013-07-01 17:36:00,73.4,68.0,29.90,ESE,108,1.0,5.0,83,0.00,,,0.79,weatherlink.com 1.10,2013-07-01 21:36:00,
2013-07-01 17:51:00,72.8,69.0,29.90,ESE,105,1.0,5.0,87,0.00,,,0.79,weatherlink.com 1.10,2013-07-01 21:51:00,
2013-07-01 18:06:00,72.5,68.0,29.90,ESE,104,0.0,2.0,86,0.00,,,0.79,weatherlink.com 1.10,2013-07-01 22:06:00,
2013-07-01 18:21:00,72.2,68.0,29.91,ESE,104,0.0,1.0,86,0.00,,,0.79,weatherlink.com 1.10,2013-07-01 22:21:00,
2013-07-01 18:36:00,71.9,67.0,29.91,ESE,104,0.0,1.0,84,0.00,,,0.79,weatherlink.com 1.10,2013-07-01 22:36:00,
2013-07-01 18:51:00,71.3,67.0,29.92,ESE,104,1.0,1.0,86,0.00,,,0.79,weatherlink.com 1.10,2013-07-01 22:51:00,
2013-07-01 19:06:00,71.0,67.0,29.93,ESE,107,0.0,2.0,88,0.00,,,0.79,weatherlink.com 1.10,2013-07-01 23:06:00,
2013-07-01 19:21:00,70.9,67.0,29.94,SSE,153,0.0,2.0,87,0.00,,,0.79,weatherlink.com 1.10,2013-07-01 23:21:00,
2013-07-01 19:36:00,70.4,67.0,29.95,SSE,153,0.0,0.0,90,0.04,,,0.83,weatherlink.com 1.10,2013-07-01 23:36:00,
2013-07-01 19:51:00,69.4,67.0,29.96,SSE,153,0.0,1.0,93,0.11,,,0.90,weatherlink.com 1.10,2013-07-01 23:51:00,
2013-07-01 20:06:00,68.7,67.0,29.97,SSE,153,0.0,1.0,94,0.19,,,0.98,weatherlink.com 1.10,2013-07-02 00:06:00,
2013-07-01 20:22:00,68.3,67.0,29.97,SSE,153,0.0,0.0,95,0.22,,,1.01,weatherlink.com 1.10,2013-07-02 00:22:00,
2013-07-01 20:37:00,68.0,67.0,29.98,SSE,153,0.0,1.0,96,0.27,,,1.10,weatherlink.com 1.10,2013-07-02 00:37:00,
2013-07-01 20:52:00,67.2,66.0,29.99,SSE,153,0.0,2.0,95,0.30,,,1.20,weatherlink.com 1.10,2013-07-02 00:52:00,
2013-07-01 21:07:00,66.3,65.0,30.00,SSE,153,0.0,2.0,96,0.26,,,1.24,weatherlink.com 1.10,2013-07-02 01:07:00,
2013-07-01 21:22:00,65.7,65.0,30.00,SSE,153,0.0,1.0,97,0.24,,,1.25,weatherlink.com 1.10,2013-07-02 01:22:00,
2013-07-01 21:37:00,65.3,65.0,30.00,SSE,153,0.0,1.0,97,0.15,,,1.26,weatherlink.com 1.10,2013-07-02 01:37:00,
2013-07-01 21:52:00,65.0,64.0,30.00,SSE,153,0.0,0.0,97,0.06,,,1.26,weatherlink.com 1.10,2013-07-02 01:52:00,
2013-07-01 22:07:00,64.9,64.0,30.00,SSE,153,0.0,0.0,97,0.02,,,1.26,weatherlink.com 1.10,2013-07-02 02:07:00,
2013-07-01 22:22:00,64.8,64.0,30.00,SSE,153,0.0,0.0,97,0.02,,,1.27,weatherlink.com 1.10,2013-07-02 02:22:00,
2013-07-01 22:37:00,64.8,64.0,30.00,SSE,153,0.0,2.0,98,0.01,,,1.27,weatherlink.com 1.10,2013-07-02 02:37:00,
2013-07-01 22:52:00,64.8,64.0,30.00,SSE,153,0.0,2.0,98,0.01,,,1.27,weatherlink.com 1.10,2013-07-02 02:52:00,
2013-07-01 23:07:00,64.9,64.0,30.00,SSE,153,1.0,2.0,98,0.01,,,1.27,weatherlink.com 1.10,2013-07-02 03:07:00,
2013-07-01 23:22:00,64.5,64.0,30.01,SSE,153,1.0,3.0,97,0.00,,,1.27,weatherlink.com 1.10,2013-07-02 03:22:00,
2013-07-01 23:37:00,64.0,64.0,30.00,SSE,153,0.0,0.0,98,0.00,,,1.27,weatherlink.com 1.10,2013-07-02 03:37:00,
2013-07-01 23:52:00,63.9,63.0,30.00,SSE,153,0.0,0.0,98,0.00,,,1.27,weatherlink.com 1.10,2013-07-02 03:52:00,